createdAt,value
2017-05-06T00:00:23.925Z,81.00
2017-05-06T00:02:50.957Z,81.20
2017-05-06T00:05:18.013Z,81.60
2017-05-06T00:07:45.059Z,82.00
2017-05-06T00:10:12.096Z,82.00
2017-05-06T00:12:39.161Z,82.10
2017-05-06T00:15:06.163Z,82.10
2017-05-06T00:17:33.161Z,82.10
2017-05-06T00:20:00.211Z,82.80
2017-05-06T00:22:27.221Z,83.30
2017-05-06T00:24:54.274Z,83.50
2017-05-06T00:27:21.309Z,83.90
2017-05-06T00:29:48.302Z,84.20
2017-05-06T00:32:16.037Z,84.30
2017-05-06T00:34:43.089Z,84.10
2017-05-06T00:37:10.108Z,83.90
2017-05-06T00:39:37.137Z,83.90
2017-05-06T00:42:04.192Z,84.10
2017-05-06T00:44:31.239Z,84.20
2017-05-06T00:46:58.221Z,84.40
2017-05-06T00:49:25.224Z,84.50
2017-05-06T00:51:52.291Z,84.70
2017-05-06T00:54:19.289Z,84.90
2017-05-06T00:56:46.305Z,84.80
2017-05-06T00:59:13.392Z,84.70
2017-05-06T01:01:40.390Z,84.70
2017-05-06T01:04:07.391Z,83.90
2017-05-06T01:06:35.002Z,82.60
2017-05-06T01:09:02.102Z,82.10
2017-05-06T01:11:29.133Z,82.00
2017-05-06T01:13:56.910Z,81.90
2017-05-06T01:16:23.949Z,81.80
2017-05-06T01:18:51.701Z,81.10
2017-05-06T01:21:19.459Z,81.40
2017-05-06T01:23:47.237Z,81.40
2017-05-06T01:26:14.996Z,81.90
2017-05-06T01:28:42.027Z,82.20
2017-05-06T01:31:09.076Z,82.90
2017-05-06T01:33:36.158Z,81.90
2017-05-06T01:36:03.302Z,81.70
2017-05-06T01:38:30.309Z,81.40
2017-05-06T01:40:57.332Z,81.20
2017-05-06T01:43:24.499Z,81.10
2017-05-06T01:45:51.509Z,81.10
2017-05-06T01:48:19.461Z,81.20
2017-05-06T01:50:46.500Z,81.50
2017-05-06T01:53:14.261Z,82.00
2017-05-06T01:55:41.289Z,81.90
2017-05-06T01:58:08.321Z,82.00
2017-05-06T02:00:35.369Z,82.30
2017-05-06T02:03:02.388Z,82.30
2017-05-06T02:05:29.432Z,82.70
2017-05-06T02:07:56.467Z,82.60
2017-05-06T02:10:23.465Z,82.80
2017-05-06T02:12:50.465Z,82.70
2017-05-06T02:15:17.523Z,82.80
2017-05-06T02:17:44.527Z,82.80
2017-05-06T02:20:11.540Z,83.00
2017-05-06T02:22:38.549Z,82.10
2017-05-06T02:25:05.652Z,82.30
2017-05-06T02:27:32.708Z,82.80
2017-05-06T02:30:00.481Z,83.30
2017-05-06T02:32:27.508Z,84.00
2017-05-06T02:34:54.531Z,82.80
2017-05-06T02:37:21.554Z,82.90
2017-05-06T02:39:48.538Z,83.00
2017-05-06T02:42:15.676Z,84.00
2017-05-06T02:44:42.694Z,84.60
2017-05-06T02:47:09.741Z,84.40
2017-05-06T02:49:36.744Z,84.70
2017-05-06T02:52:04.576Z,85.60
2017-05-06T02:54:31.571Z,86.30
2017-05-06T02:56:58.573Z,86.30
2017-05-06T02:59:25.624Z,86.60
2017-05-06T03:01:52.656Z,87.40
2017-05-06T03:04:19.661Z,85.70
2017-05-06T03:06:46.735Z,86.70
2017-05-06T03:09:13.776Z,87.00
2017-05-06T03:11:40.799Z,86.90
2017-05-06T03:14:07.849Z,87.20
2017-05-06T03:16:34.858Z,86.80
2017-05-06T03:19:01.872Z,86.40
2017-05-06T03:21:28.925Z,86.40
2017-05-06T03:23:55.905Z,87.00
2017-05-06T03:26:22.903Z,86.90
2017-05-06T03:28:49.966Z,86.50
2017-05-06T03:31:17.026Z,86.10
2017-05-06T03:33:44.059Z,86.20
2017-05-06T03:36:11.080Z,86.30
2017-05-06T03:38:38.133Z,86.70
2017-05-06T03:41:05.124Z,87.10
2017-05-06T03:43:32.135Z,87.90
2017-05-06T03:45:59.168Z,88.80
2017-05-06T03:48:26.209Z,89.40
2017-05-06T03:50:53.193Z,89.20
2017-05-06T03:53:20.252Z,89.10
2017-05-06T03:55:47.273Z,89.30
2017-05-06T03:58:14.281Z,89.20
2017-05-06T04:00:41.318Z,90.00
2017-05-06T04:03:09.119Z,89.60
2017-05-06T04:05:36.139Z,89.70
2017-05-06T04:08:03.180Z,89.80
2017-05-06T04:10:30.993Z,90.00
2017-05-06T04:12:58.000Z,90.00
2017-05-06T04:15:25.297Z,88.70
2017-05-06T04:17:52.342Z,87.50
2017-05-06T04:20:19.333Z,88.40
2017-05-06T04:22:46.327Z,88.80
2017-05-06T04:25:13.353Z,89.30
2017-05-06T04:27:40.370Z,89.60
2017-05-06T04:30:08.139Z,89.80
2017-05-06T04:32:35.955Z,89.80
2017-05-06T04:35:02.956Z,89.30
2017-05-06T04:37:29.944Z,90.00
2017-05-06T04:39:57.020Z,89.30
2017-05-06T04:42:24.011Z,89.40
2017-05-06T04:44:51.047Z,89.70
2017-05-06T04:47:18.090Z,89.60
2017-05-06T04:49:45.140Z,89.90
2017-05-06T04:52:12.163Z,88.80
2017-05-06T04:54:40.027Z,87.80
2017-05-06T04:57:07.124Z,86.60
2017-05-06T04:59:34.177Z,86.30
2017-05-06T05:02:01.191Z,85.50
2017-05-06T05:04:28.232Z,84.70
2017-05-06T05:06:56.003Z,84.00
2017-05-06T05:09:23.038Z,83.60
2017-05-06T05:11:50.037Z,82.40
2017-05-06T05:14:17.100Z,82.60
2017-05-06T05:16:44.103Z,81.50
2017-05-06T05:19:11.874Z,81.60
2017-05-06T05:21:38.884Z,81.70
2017-05-06T05:24:05.924Z,82.10
2017-05-06T05:26:33.727Z,83.40
2017-05-06T05:29:00.846Z,82.10
2017-05-06T05:31:28.642Z,81.40
2017-05-06T05:33:55.656Z,81.50
2017-05-06T05:36:23.433Z,81.90
2017-05-06T05:38:50.517Z,82.00
2017-05-06T05:41:17.532Z,79.30
2017-05-06T05:43:44.567Z,77.00
2017-05-06T05:46:11.553Z,77.30
2017-05-06T05:48:38.555Z,77.30
2017-05-06T05:51:05.577Z,77.00
2017-05-06T05:53:32.671Z,76.20
2017-05-06T05:55:59.733Z,76.80
2017-05-06T05:58:27.235Z,76.20
2017-05-06T06:00:54.297Z,76.70
2017-05-06T06:03:21.347Z,74.80
2017-05-06T06:05:49.121Z,73.20
2017-05-06T06:08:16.143Z,72.80
2017-05-06T06:10:43.237Z,72.80
2017-05-06T06:13:10.276Z,72.20
2017-05-06T06:15:37.400Z,71.60
2017-05-06T06:18:04.489Z,71.40
2017-05-06T06:20:31.518Z,70.90
2017-05-06T06:22:58.571Z,70.00
2017-05-06T06:25:25.622Z,69.40
2017-05-06T06:27:52.661Z,67.50
2017-05-06T06:30:19.671Z,67.60
2017-05-06T06:32:46.730Z,66.20
2017-05-06T06:35:14.486Z,66.70
2017-05-06T06:37:42.263Z,66.70
2017-05-06T06:40:10.075Z,64.30
2017-05-06T06:42:37.110Z,63.60
2017-05-06T06:45:04.176Z,63.40
2017-05-06T06:47:31.239Z,61.50
2017-05-06T06:49:58.295Z,60.00
2017-05-06T06:52:25.390Z,58.80
2017-05-06T06:54:52.429Z,59.20
2017-05-06T06:57:19.494Z,59.30
2017-05-06T06:59:46.553Z,58.50
2017-05-06T07:02:13.583Z,58.50
2017-05-06T07:04:40.635Z,59.70
2017-05-06T07:07:07.704Z,59.70
2017-05-06T07:09:34.772Z,59.30
2017-05-06T07:12:01.810Z,57.90
2017-05-06T07:14:28.919Z,57.50
2017-05-06T07:16:55.928Z,55.90
2017-05-06T07:19:23.686Z,54.20
2017-05-06T07:21:50.773Z,53.30
2017-05-06T07:24:17.807Z,52.70
2017-05-06T07:26:44.839Z,51.90
2017-05-06T07:29:12.621Z,53.80
2017-05-06T07:31:39.655Z,53.20
2017-05-06T07:34:07.431Z,53.70
2017-05-06T07:36:34.493Z,54.10
2017-05-06T07:39:01.478Z,53.50
2017-05-06T07:41:28.503Z,54.30
2017-05-06T07:43:55.565Z,55.60
2017-05-06T07:46:22.660Z,56.00
2017-05-06T07:48:49.638Z,56.30
2017-05-06T07:51:16.684Z,56.90
2017-05-06T07:53:43.727Z,56.90
2017-05-06T07:56:10.727Z,58.00
2017-05-06T07:58:37.733Z,58.90
2017-05-06T08:01:04.771Z,59.80
2017-05-06T08:03:31.773Z,60.30
2017-05-06T08:05:59.570Z,60.00
2017-05-06T08:08:26.641Z,59.70
2017-05-06T08:10:53.653Z,59.80
2017-05-06T08:13:20.725Z,59.80
2017-05-06T08:15:47.738Z,59.80
2017-05-06T08:18:14.746Z,59.10
2017-05-06T08:20:41.783Z,59.20
2017-05-06T08:23:08.805Z,59.20
2017-05-06T08:25:35.935Z,60.40
2017-05-06T08:28:02.935Z,59.70
2017-05-06T08:30:29.939Z,60.00
2017-05-06T08:32:57.002Z,60.90
2017-05-06T08:35:23.981Z,58.80
2017-05-06T08:37:50.974Z,59.50
2017-05-06T08:40:18.025Z,58.70
2017-05-06T08:42:45.049Z,57.80
2017-05-06T08:45:12.056Z,58.20
2017-05-06T08:47:39.128Z,56.80
2017-05-06T08:50:06.880Z,56.00
2017-05-06T08:52:33.909Z,55.80
2017-05-06T08:55:00.906Z,55.80
2017-05-06T08:57:27.906Z,55.40
2017-05-06T08:59:54.964Z,55.90
2017-05-06T09:02:21.994Z,56.70
2017-05-06T09:04:49.007Z,55.80
2017-05-06T09:07:16.121Z,55.60
2017-05-06T09:09:43.869Z,54.30
2017-05-06T09:12:10.984Z,55.00
2017-05-06T09:14:38.040Z,55.40
2017-05-06T09:17:05.099Z,53.90
2017-05-06T09:19:32.091Z,53.00
2017-05-06T09:21:59.136Z,51.90
2017-05-06T09:24:26.165Z,52.50
2017-05-06T09:26:53.198Z,52.90
2017-05-06T09:29:20.246Z,52.90
2017-05-06T09:31:47.272Z,53.90
2017-05-06T09:34:14.261Z,50.70
2017-05-06T09:36:41.364Z,49.20
2017-05-06T09:39:08.366Z,48.50
2017-05-06T09:41:35.359Z,49.30
2017-05-06T09:44:02.422Z,49.20
2017-05-06T09:46:29.462Z,48.90
2017-05-06T09:48:56.471Z,48.00
2017-05-06T09:51:23.511Z,48.80
2017-05-06T09:53:50.548Z,48.90
2017-05-06T09:56:17.597Z,48.20
2017-05-06T09:58:44.643Z,47.90
2017-05-06T10:01:11.747Z,48.60
2017-05-06T10:03:38.783Z,48.80
2017-05-06T10:06:05.804Z,48.50
2017-05-06T10:08:32.879Z,48.50
2017-05-06T10:10:59.939Z,48.70
2017-05-06T10:13:26.998Z,48.60
2017-05-06T10:15:54.793Z,49.10
2017-05-06T10:18:21.795Z,48.90
2017-05-06T10:20:49.356Z,49.10
2017-05-06T10:23:16.474Z,48.30
2017-05-06T10:25:43.467Z,47.30
2017-05-06T10:28:11.390Z,48.30
2017-05-06T10:30:38.490Z,46.60
2017-05-06T10:33:05.591Z,47.50
2017-05-06T10:35:32.630Z,47.20
2017-05-06T10:37:59.642Z,47.70
2017-05-06T10:40:26.708Z,48.60
2017-05-06T10:42:53.714Z,50.10
2017-05-06T10:45:21.554Z,49.60
2017-05-06T10:47:48.589Z,49.40
2017-05-06T10:50:15.649Z,48.90
2017-05-06T10:52:42.738Z,48.40
2017-05-06T10:55:09.756Z,48.20
2017-05-06T10:57:36.790Z,48.00
2017-05-06T11:00:03.850Z,47.40
2017-05-06T11:02:30.984Z,47.70
2017-05-06T11:04:58.031Z,47.60
2017-05-06T11:07:25.078Z,48.40
2017-05-06T11:09:52.117Z,48.40
2017-05-06T11:12:24.249Z,48.50
2017-05-06T11:14:55.820Z,49.00
2017-05-06T11:17:22.832Z,49.00
2017-05-06T11:19:50.671Z,48.60
2017-05-06T11:22:17.698Z,50.10
2017-05-06T11:24:44.791Z,50.40
2017-05-06T11:27:12.594Z,51.40
2017-05-06T11:29:39.647Z,51.00
2017-05-06T11:32:06.696Z,51.00
2017-05-06T11:34:35.092Z,51.00
2017-05-06T11:37:05.593Z,51.70
2017-05-06T11:39:32.616Z,51.30
2017-05-06T11:42:05.030Z,51.20
2017-05-06T11:44:33.059Z,52.20
2017-05-06T11:47:00.131Z,53.50
2017-05-06T11:49:27.186Z,53.50
2017-05-06T11:51:54.198Z,53.70
2017-05-06T11:54:21.347Z,53.10
2017-05-06T11:56:48.364Z,53.70
2017-05-06T11:59:16.312Z,52.90
2017-05-06T12:01:43.928Z,52.70
2017-05-06T12:04:10.986Z,55.60
2017-05-06T12:06:38.223Z,57.70
2017-05-06T12:09:05.267Z,59.30
2017-05-06T12:11:32.375Z,58.50
2017-05-06T12:14:00.012Z,59.20
2017-05-06T12:16:27.367Z,60.20
2017-05-06T12:18:54.436Z,60.00
2017-05-06T12:21:24.196Z,58.30
2017-05-06T12:23:51.295Z,58.10
2017-05-06T12:26:22.905Z,57.30
2017-05-06T12:28:49.933Z,57.50
2017-05-06T12:31:17.411Z,57.50
2017-05-06T12:33:44.428Z,60.80
2017-05-06T12:36:12.305Z,60.90
2017-05-06T12:38:44.112Z,62.00
2017-05-06T12:41:14.709Z,62.20
2017-05-06T12:43:41.774Z,62.30
2017-05-06T12:46:08.810Z,63.20
2017-05-06T12:48:35.830Z,63.60
2017-05-06T12:51:03.638Z,65.70
2017-05-06T12:53:30.649Z,67.90
2017-05-06T12:55:57.667Z,65.60
2017-05-06T12:58:26.645Z,66.40
2017-05-06T13:00:53.652Z,66.30
2017-05-06T13:03:21.303Z,66.30
2017-05-06T13:05:48.327Z,68.30
2017-05-06T13:08:16.089Z,68.10
2017-05-06T13:10:43.918Z,67.40
2017-05-06T13:13:10.971Z,69.10
2017-05-06T13:15:37.999Z,69.80
2017-05-06T13:18:05.051Z,68.20
2017-05-06T13:20:32.095Z,68.20
2017-05-06T13:22:59.234Z,66.70
2017-05-06T13:25:26.254Z,68.00
2017-05-06T13:27:53.321Z,69.10
2017-05-06T13:30:20.334Z,68.40
2017-05-06T13:32:47.388Z,69.20
2017-05-06T13:35:15.145Z,69.60
2017-05-06T13:37:42.192Z,69.50
2017-05-06T13:40:10.040Z,70.30
2017-05-06T13:42:37.037Z,69.40
2017-05-06T13:45:04.048Z,69.70
2017-05-06T13:47:31.110Z,68.60
2017-05-06T13:49:58.129Z,69.70
2017-05-06T13:52:25.140Z,71.10
2017-05-06T13:54:52.208Z,71.50
2017-05-06T13:57:19.233Z,71.40
2017-05-06T13:59:46.297Z,72.40
2017-05-06T14:02:13.372Z,71.70
2017-05-06T14:04:41.172Z,72.10
2017-05-06T14:07:08.256Z,72.10
2017-05-06T14:09:35.307Z,72.20
2017-05-06T14:12:02.366Z,74.20
2017-05-06T14:14:29.451Z,74.10
2017-05-06T14:16:56.496Z,72.80
2017-05-06T14:19:23.552Z,72.80
2017-05-06T14:21:50.672Z,71.50
2017-05-06T14:24:18.501Z,73.50
2017-05-06T14:26:45.576Z,74.00
2017-05-06T14:29:12.644Z,74.30
2017-05-06T14:31:40.416Z,75.70
2017-05-06T14:34:07.577Z,76.80
2017-05-06T14:36:34.669Z,78.10
2017-05-06T14:39:01.753Z,78.40
2017-05-06T14:41:29.607Z,79.20
2017-05-06T14:43:57.456Z,80.00
2017-05-06T14:46:24.539Z,81.40
2017-05-06T14:48:51.635Z,81.10
2017-05-06T14:51:18.719Z,81.50
2017-05-06T14:53:46.569Z,80.40
2017-05-06T14:56:13.630Z,80.80
2017-05-06T14:58:41.503Z,79.90
2017-05-06T15:01:09.360Z,78.60
2017-05-06T15:03:37.182Z,79.10
2017-05-06T15:06:04.309Z,80.20
2017-05-06T15:08:31.368Z,80.90
2017-05-06T15:10:58.482Z,81.60
2017-05-06T15:13:26.339Z,82.80
2017-05-06T15:15:54.179Z,83.00
2017-05-06T15:18:21.252Z,82.50
2017-05-06T15:20:48.294Z,84.90
2017-05-06T15:23:15.861Z,85.30
2017-05-06T15:25:43.670Z,84.60
2017-05-06T15:28:10.737Z,85.20
2017-05-06T15:30:37.823Z,86.20
2017-05-06T15:33:05.653Z,86.70
2017-05-06T15:35:32.786Z,86.50
2017-05-06T15:37:59.941Z,87.00
2017-05-06T15:40:27.001Z,88.40
2017-05-06T15:42:54.063Z,88.60
2017-05-06T15:45:21.098Z,88.60
2017-05-06T15:47:48.139Z,88.70
2017-05-06T15:50:15.215Z,88.80
2017-05-06T15:52:42.976Z,88.70
2017-05-06T15:55:10.804Z,89.40
2017-05-06T15:57:37.885Z,89.00
2017-05-06T16:00:04.925Z,90.00
2017-05-06T16:02:32.072Z,90.40
2017-05-06T16:04:59.092Z,90.20
2017-05-06T16:07:26.166Z,90.50
2017-05-06T16:09:53.244Z,90.70
2017-05-06T16:12:21.074Z,90.60
2017-05-06T16:14:48.138Z,91.10
2017-05-06T16:17:15.182Z,90.90
2017-05-06T16:19:43.005Z,91.30
2017-05-06T16:22:10.040Z,91.80
2017-05-06T16:24:37.040Z,91.40
2017-05-06T16:27:04.103Z,91.40
2017-05-06T16:29:31.946Z,92.00
2017-05-06T16:31:59.021Z,91.70
2017-05-06T16:34:26.819Z,91.80
2017-05-06T16:36:53.882Z,91.90
2017-05-06T16:39:20.903Z,92.00
2017-05-06T16:41:47.933Z,92.30
2017-05-06T16:44:14.996Z,92.30
2017-05-06T16:46:42.035Z,92.10
2017-05-06T16:49:09.086Z,92.10
2017-05-06T16:51:36.158Z,92.10
2017-05-06T16:54:03.293Z,91.60
2017-05-06T16:56:30.343Z,91.90
2017-05-06T16:58:57.451Z,92.10
2017-05-06T17:01:25.238Z,91.80
2017-05-06T17:03:52.307Z,92.30
2017-05-06T17:06:19.323Z,92.10
2017-05-06T17:08:46.331Z,91.70
2017-05-06T17:11:13.457Z,92.10
2017-05-06T17:13:40.477Z,92.10
2017-05-06T17:16:07.480Z,91.80
2017-05-06T17:18:34.614Z,91.90
2017-05-06T17:21:01.667Z,92.00
2017-05-06T17:23:28.758Z,91.90
2017-05-06T17:25:55.846Z,92.50
2017-05-06T17:28:22.921Z,92.30
2017-05-06T17:30:49.995Z,92.20
2017-05-06T17:33:17.763Z,92.20
2017-05-06T17:35:44.866Z,92.50
2017-05-06T17:38:11.965Z,92.50
2017-05-06T17:40:39.023Z,92.20
2017-05-06T17:43:06.135Z,92.40
2017-05-06T17:45:33.202Z,92.90
2017-05-06T17:48:00.223Z,92.80
2017-05-06T17:50:27.337Z,92.80
2017-05-06T17:52:54.349Z,92.80
2017-05-06T17:55:21.381Z,92.70
2017-05-06T17:57:49.203Z,93.30
2017-05-06T18:00:16.303Z,93.00
2017-05-06T18:02:43.410Z,93.20
2017-05-06T18:05:10.447Z,93.60
2017-05-06T18:07:37.501Z,93.50
2017-05-06T18:10:04.573Z,92.90
2017-05-06T18:12:31.597Z,92.90
2017-05-06T18:14:58.681Z,93.10
2017-05-06T18:17:26.512Z,93.10
2017-05-06T18:19:53.560Z,93.10
2017-05-06T18:22:21.244Z,93.80
2017-05-06T18:24:49.175Z,93.60
2017-05-06T18:27:16.229Z,93.80
2017-05-06T18:29:43.294Z,94.00
2017-05-06T18:32:10.358Z,93.80
2017-05-06T18:34:38.161Z,94.30
2017-05-06T18:37:05.243Z,93.80
2017-05-06T18:39:32.297Z,93.80
2017-05-06T18:41:59.347Z,93.70
2017-05-06T18:44:26.416Z,93.40
2017-05-06T18:46:54.192Z,93.30
2017-05-06T18:49:22.060Z,93.50
2017-05-06T18:51:50.435Z,93.40
2017-05-06T18:54:18.202Z,93.30
2017-05-06T18:56:45.997Z,93.40
2017-05-06T18:59:13.098Z,93.60
2017-05-06T19:01:40.881Z,93.80
2017-05-06T19:04:08.655Z,93.90
2017-05-06T19:06:35.755Z,94.00
2017-05-06T19:09:02.894Z,94.10
2017-05-06T19:11:29.922Z,94.00
2017-05-06T19:13:57.035Z,94.40
2017-05-06T19:16:24.093Z,94.40
2017-05-06T19:18:51.201Z,94.50
2017-05-06T19:21:18.261Z,94.20
2017-05-06T19:23:45.381Z,94.20
2017-05-06T19:26:12.436Z,94.10
2017-05-06T19:28:39.576Z,93.90
2017-05-06T19:31:06.659Z,93.90
2017-05-06T19:33:34.419Z,94.00
2017-05-06T19:36:01.557Z,94.10
2017-05-06T19:38:28.592Z,94.10
2017-05-06T19:40:55.635Z,94.30
2017-05-06T19:43:22.710Z,94.40
2017-05-06T19:45:49.823Z,94.40
2017-05-06T19:48:16.898Z,95.10
2017-05-06T19:50:43.987Z,94.90
2017-05-06T19:53:11.023Z,94.80
2017-05-06T19:55:38.069Z,94.90
2017-05-06T19:58:05.176Z,94.50
2017-05-06T20:00:32.267Z,94.40
2017-05-06T20:02:59.281Z,94.20
2017-05-06T20:05:26.320Z,93.70
2017-05-06T20:07:53.426Z,94.20
2017-05-06T20:10:20.438Z,94.00
2017-05-06T20:12:48.240Z,94.30
2017-05-06T20:15:15.336Z,94.10
2017-05-06T20:17:42.364Z,94.30
2017-05-06T20:20:09.409Z,94.40
2017-05-06T20:22:36.472Z,94.60
2017-05-06T20:25:03.501Z,94.20
2017-05-06T20:27:30.582Z,94.40
2017-05-06T20:29:58.364Z,94.90
2017-05-06T20:32:25.382Z,94.40
2017-05-06T20:34:52.452Z,94.70
2017-05-06T20:37:20.200Z,94.60
2017-05-06T20:39:47.208Z,94.20
2017-05-06T20:42:14.283Z,94.40
2017-05-06T20:44:41.337Z,94.50
2017-05-06T20:47:09.121Z,94.50
2017-05-06T20:49:36.164Z,94.70
2017-05-06T20:52:03.917Z,94.70
2017-05-06T20:54:31.672Z,95.10
2017-05-06T20:56:58.704Z,95.00
2017-05-06T20:59:25.721Z,94.80
2017-05-06T21:01:52.736Z,94.80
2017-05-06T21:04:19.775Z,95.20
2017-05-06T21:06:47.544Z,95.00
2017-05-06T21:09:15.276Z,95.00
2017-05-06T21:11:42.320Z,95.00
2017-05-06T21:14:09.399Z,95.10
2017-05-06T21:16:36.426Z,95.10
2017-05-06T21:19:03.465Z,95.00
2017-05-06T21:21:30.523Z,95.20
2017-05-06T21:23:57.527Z,95.20
2017-05-06T21:26:24.509Z,95.50
2017-05-06T21:28:51.556Z,95.40
2017-05-06T21:31:18.548Z,95.40
2017-05-06T21:33:45.568Z,95.50
2017-05-06T21:36:13.345Z,95.70
2017-05-06T21:38:40.353Z,95.80
2017-05-06T21:41:07.393Z,95.80
2017-05-06T21:43:34.421Z,96.20
2017-05-06T21:46:01.412Z,96.10
2017-05-06T21:48:28.500Z,96.10
2017-05-06T21:50:55.514Z,96.30
2017-05-06T21:53:23.266Z,96.30
2017-05-06T21:55:50.314Z,96.30
2017-05-06T21:58:17.443Z,96.20
2017-05-06T22:00:44.510Z,95.90
2017-05-06T22:03:11.530Z,95.90
2017-05-06T22:05:38.572Z,95.80
2017-05-06T22:08:05.600Z,95.60
2017-05-06T22:10:32.608Z,95.40
2017-05-06T22:13:00.396Z,95.70
2017-05-06T22:15:27.441Z,95.60
2017-05-06T22:17:54.443Z,95.40
2017-05-06T22:20:21.481Z,95.40
2017-05-06T22:22:48.492Z,95.50
2017-05-06T22:25:15.504Z,95.60
2017-05-06T22:27:43.272Z,95.60
2017-05-06T22:30:11.002Z,95.80
2017-05-06T22:32:37.995Z,95.70
2017-05-06T22:35:05.084Z,95.60
2017-05-06T22:37:32.074Z,95.70
2017-05-06T22:39:59.854Z,95.80
2017-05-06T22:42:26.938Z,95.80
2017-05-06T22:44:53.972Z,95.80
2017-05-06T22:47:21.011Z,95.80
2017-05-06T22:49:48.090Z,95.80
2017-05-06T22:52:15.132Z,95.70
2017-05-06T22:54:42.156Z,95.80
2017-05-06T22:57:09.226Z,96.10
2017-05-06T22:59:36.239Z,96.00
2017-05-06T23:02:03.239Z,96.20
2017-05-06T23:04:30.286Z,96.40
2017-05-06T23:06:57.274Z,96.40
2017-05-06T23:09:24.288Z,96.40
2017-05-06T23:11:52.110Z,96.40
2017-05-06T23:14:19.153Z,96.40
2017-05-06T23:16:46.194Z,96.60
2017-05-06T23:19:13.193Z,96.60
2017-05-06T23:21:40.925Z,96.70
2017-05-06T23:24:07.974Z,96.90
2017-05-06T23:26:34.971Z,97.00
2017-05-06T23:29:01.970Z,97.00
2017-05-06T23:31:29.028Z,97.00
2017-05-06T23:33:56.069Z,96.90
2017-05-06T23:36:23.114Z,96.90
2017-05-06T23:38:50.094Z,97.00
2017-05-06T23:41:17.843Z,97.00
2017-05-06T23:43:44.857Z,97.00
2017-05-06T23:46:11.853Z,97.10
2017-05-06T23:48:39.623Z,97.00
2017-05-06T23:51:06.596Z,97.00
2017-05-06T23:53:33.673Z,96.80
2017-05-06T23:56:00.684Z,96.90
2017-05-06T23:58:27.688Z,96.90
